Saint Martin Island, Netherlands Antilles

7:04 AM EST on February 25, 2017 (GMT -0500)
Island 92 | | Change Station

Elev 35 ft 18.03 °N, 63.09 °W | Updated 14 seconds ago

Mostly Cloudy
Mostly Cloudy
81.7 °F
Feels Like 84 °F
N
6.3
Wind Variable Wind from SSE

Today
High -- | Low -- °F
--% Chance of Precip.
Yesterday
High -- | Low -- °F
Precip. -- in
Pressure 29.98 in
Visibility 6.2 miles
Clouds Few 1600 ft
Mostly Cloudy 3000 ft
Heat Index 84 °F
Dew Point 67 °F
Humidity 62%
Rainfall in
Snow Depth Not available.
5:33 AM 5:17 PM
Waning Crescent, 2% visible
METAR TNCM 251100Z 11006KT 080V140 9999 VCSH FEW016 BKN030 25/22 Q1015 A2999 NOSIG RMK VCSH NE
Pressure 29.98 in
Visibility 6.2 miles
Clouds Few 1600 ft
Mostly Cloudy 3000 ft
Heat Index 84 °F
Dew Point 67 °F
Humidity 62%
Rainfall in
Snow Depth Not available.
5:33 AM 5:17 PM
Waning Crescent, 2% visible
METAR TNCM 251100Z 11006KT 080V140 9999 VCSH FEW016 BKN030 25/22 Q1015 A2999 NOSIG RMK VCSH NE

Get Your Daily Forecast Email!

Thanks for signing up!

Be on the lookout for a verification email in your inbox.

You'll start receiving the daily forecast at 8 AM.

×

10-Day Weather Forecast

No radar image for this location.
×

Almanac

Astronomy

Feb. 25, 2017 Rise Set
Actual Time
Civil Twilight
Nautical Twilight
Astronomical Twilight
Moon
Length of Visible Light
Length of Day
Tomorrow will be .
, % of the Moon is Illuminated

Today's Extremes

Country Highs Country Lows

Community

WunderPhotos

Upload Photos

1,962,540 photos uploaded!

WunderBlog® & News

Nearby

Air Quality

  Air Quality AQ Index Pollutant
Not available.

Snow Depth

Station Depth Elevation

Earthquake Activity

City Distance Mag. Time & Date
Minimum magnitude displayed is 2.5.

Coastal Water Temperatures

Place Temperature

Stations

Nearby Weather Stations

Station Location Temp. Windchill Dew Point Humidity Wind Precip. Elev Updated Type